Time;durP1;ratioP1;P1;durP2;ratioP2;P2;SDS_P1;SDS_P2;PMS_P1;PMS_P2;Temp;Humidity;BMP_temperature;BMP_pressure;BME280_temperature;BME280_humidity;BME280_pressure;Samples;Min_cycle;Max_cycle;Signal;HPM_P1;HPM_P2
2023/09/15 00:00:24;;;;;;;3.58;1.08;;;12.60;99.90;;;;;;4963342;28;20502;-82
2023/09/15 00:02:52;;;;;;;2.45;0.90;;;12.50;99.90;;;;;;4963546;28;20121;-82
2023/09/15 00:05:18;;;;;;;3.03;0.80;;;12.50;99.90;;;;;;4958422;28;20035;-81
2023/09/15 00:07:45;;;;;;;1.80;0.82;;;12.40;99.90;;;;;;4958711;28;20023;-80
2023/09/15 00:10:19;;;;;;;2.10;0.85;;;12.40;99.90;;;;;;4956638;28;20062;-81
2023/09/15 00:12:45;;;;;;;2.80;0.90;;;12.40;99.90;;;;;;4947647;28;20081;-82
2023/09/15 00:15:11;;;;;;;4.05;1.10;;;12.30;99.90;;;;;;4960374;28;20080;-83
2023/09/15 00:17:39;;;;;;;4.68;1.52;;;12.30;99.90;;;;;;4973194;28;20032;-78
2023/09/15 00:20:13;;;;;;;2.10;1.15;;;12.20;99.90;;;;;;4947271;28;20027;-81
2023/09/15 00:22:50;;;;;;;3.83;1.58;;;12.20;99.90;;;;;;4959785;28;20384;-79
2023/09/15 00:25:20;;;;;;;2.88;1.20;;;12.10;99.90;;;;;;4960416;28;20027;-83
2023/09/15 00:27:53;;;;;;;3.45;1.05;;;12.10;99.90;;;;;;4967079;28;20467;-79
2023/09/15 00:30:20;;;;;;;2.25;1.10;;;12.10;99.90;;;;;;4961547;28;20510;-79
2023/09/15 00:32:47;;;;;;;3.28;1.20;;;12.10;99.90;;;;;;4956460;28;20031;-80
2023/09/15 00:35:17;;;;;;;1.90;0.85;;;12.10;99.90;;;;;;4950012;28;20157;-79
2023/09/15 00:37:45;;;;;;;2.25;0.90;;;12.00;99.90;;;;;;4969664;28;20169;-83
2023/09/15 00:40:12;;;;;;;3.17;1.23;;;11.90;99.90;;;;;;4944919;28;20483;-80
2023/09/15 00:42:38;;;;;;;2.17;0.98;;;11.90;99.90;;;;;;4968975;28;20397;-79
2023/09/15 00:45:05;;;;;;;2.78;1.23;;;11.90;99.90;;;;;;4971194;28;20113;-84
2023/09/15 00:47:35;;;;;;;3.70;1.40;;;11.90;99.90;;;;;;4961820;28;20059;-81
2023/09/15 00:50:03;;;;;;;2.90;1.47;;;11.90;99.90;;;;;;4945198;28;20078;-80
2023/09/15 00:52:30;;;;;;;3.15;1.38;;;11.80;99.90;;;;;;4964781;28;20635;-81
2023/09/15 00:54:56;;;;;;;4.07;1.42;;;11.70;99.90;;;;;;4962139;28;20043;-80
2023/09/15 00:57:25;;;;;;;3.28;1.50;;;11.70;99.90;;;;;;4955921;28;20027;-81
2023/09/15 00:59:51;;;;;;;2.78;1.10;;;11.70;99.90;;;;;;4968924;28;20031;-80
2023/09/15 01:02:17;;;;;;;1.85;1.00;;;11.70;99.90;;;;;;4963839;28;20026;-80
2023/09/15 01:04:44;;;;;;;2.50;1.08;;;11.70;99.90;;;;;;4949178;28;20088;-81
2023/09/15 01:07:10;;;;;;;2.97;1.35;;;11.70;99.90;;;;;;4963585;28;20037;-81
2023/09/15 01:09:36;;;;;;;1.98;1.10;;;11.60;99.90;;;;;;4964500;28;20026;-79
2023/09/15 01:12:04;;;;;;;2.05;1.10;;;11.60;99.90;;;;;;4963494;28;20106;-81
2023/09/15 01:14:30;;;;;;;3.88;1.63;;;11.60;99.90;;;;;;4959441;28;20510;-81
2023/09/15 01:17:26;;;;;;;2.42;1.65;;;11.60;99.90;;;;;;4956425;28;20026;-79
2023/09/15 01:20:11;;;;;;;3.53;1.50;;;11.50;99.90;;;;;;4959655;28;20055;-79
2023/09/15 01:23:01;;;;;;;2.20;0.93;;;11.50;99.90;;;;;;4944715;28;20387;-80
2023/09/15 01:25:53;;;;;;;2.88;1.17;;;11.50;99.90;;;;;;4945988;28;20423;-82
2023/09/15 01:28:32;;;;;;;2.05;1.02;;;11.50;99.90;;;;;;4965931;28;20073;-80
2023/09/15 01:31:00;;;;;;;2.65;1.08;;;11.50;99.90;;;;;;4944675;28;20019;-80
2023/09/15 01:33:30;;;;;;;;;;;11.40;99.90;;;;;;4948364;28;20035;-79
2023/09/15 01:35:55;;;;;;;2.15;1.08;;;11.40;99.90;;;;;;4957942;28;19989;-80
2023/09/15 01:38:22;;;;;;;3.58;1.15;;;11.30;99.90;;;;;;4961681;28;20118;-82
2023/09/15 01:40:47;;;;;;;1.98;1.10;;;11.30;99.90;;;;;;4963859;28;20039;-82
2023/09/15 01:43:13;;;;;;;2.75;1.10;;;11.30;99.90;;;;;;4964355;28;20185;-81
2023/09/15 01:45:39;;;;;;;4.18;0.98;;;11.20;99.90;;;;;;4964787;28;20479;-81
2023/09/15 01:48:05;;;;;;;3.42;1.10;;;11.20;99.90;;;;;;4962356;28;20031;-82
2023/09/15 01:50:33;;;;;;;3.58;1.00;;;11.20;99.90;;;;;;4942936;28;20523;-81
2023/09/15 01:52:59;;;;;;;2.83;0.90;;;11.10;99.90;;;;;;4966856;28;20468;-81
2023/09/15 01:55:26;;;;;;;3.00;1.05;;;11.10;99.90;;;;;;4963572;28;20036;-81
2023/09/15 01:57:53;;;;;;;2.22;1.20;;;11.20;99.90;;;;;;4948684;28;20023;-81
2023/09/15 02:00:18;;;;;;;4.57;1.20;;;11.10;99.90;;;;;;4941774;28;20038;-79
2023/09/15 02:02:44;;;;;;;2.65;1.25;;;11.10;99.90;;;;;;4949264;28;20041;-80
2023/09/15 02:05:22;;;;;;;1.77;0.90;;;11.00;99.90;;;;;;4957240;28;20027;-80
2023/09/15 02:07:48;;;;;;;3.08;1.38;;;11.00;99.90;;;;;;4960985;28;20212;-80
2023/09/15 02:10:14;;;;;;;3.28;1.33;;;11.00;99.90;;;;;;4962159;28;20058;-80
2023/09/15 02:12:40;;;;;;;2.75;1.00;;;10.90;99.90;;;;;;4954053;28;20031;-80
2023/09/15 02:15:06;;;;;;;2.33;1.20;;;10.90;99.90;;;;;;4957305;28;20043;-80
2023/09/15 02:17:33;;;;;;;2.72;1.00;;;10.90;99.90;;;;;;4941851;28;20050;-81
2023/09/15 02:19:58;;;;;;;1.77;1.00;;;10.80;99.90;;;;;;4961117;28;20039;-82
2023/09/15 02:22:25;;;;;;;2.88;1.40;;;10.90;99.90;;;;;;4954469;28;20023;-80
2023/09/15 02:24:51;;;;;;;2.45;1.05;;;10.80;99.90;;;;;;4963071;28;20029;-81
2023/09/15 02:27:17;;;;;;;2.08;0.93;;;10.80;99.90;;;;;;4960556;28;20383;-81
2023/09/15 02:29:43;;;;;;;2.60;1.27;;;10.80;99.90;;;;;;4961718;28;20027;-79
2023/09/15 02:32:08;;;;;;;1.63;0.77;;;10.80;99.90;;;;;;4973258;28;20035;-80
2023/09/15 02:34:34;;;;;;;3.00;1.00;;;10.80;99.90;;;;;;4963794;28;20113;-81
2023/09/15 02:36:59;;;;;;;2.95;1.33;;;10.80;99.90;;;;;;4965937;28;20076;-81
2023/09/15 02:39:25;;;;;;;2.53;1.20;;;10.80;99.90;;;;;;4963630;28;20132;-85
2023/09/15 02:41:51;;;;;;;2.20;1.10;;;10.70;99.90;;;;;;4961763;28;20034;-79
2023/09/15 02:44:17;;;;;;;3.08;1.17;;;10.70;99.90;;;;;;4951731;28;20267;-80
2023/09/15 02:46:43;;;;;;;3.83;1.20;;;10.70;99.90;;;;;;4965026;28;20109;-81
2023/09/15 02:49:09;;;;;;;2.17;0.95;;;10.60;99.90;;;;;;4963292;28;20026;-79
2023/09/15 02:51:37;;;;;;;2.63;1.27;;;10.60;99.90;;;;;;4957842;28;20023;-77
2023/09/15 02:54:03;;;;;;;2.67;1.10;;;10.60;99.90;;;;;;4963081;28;20118;-80
2023/09/15 02:56:29;;;;;;;3.45;1.50;;;10.60;99.90;;;;;;4949235;28;20028;-81
2023/09/15 02:58:56;;;;;;;2.60;0.90;;;10.60;99.90;;;;;;4956312;28;20113;-80
2023/09/15 03:01:22;;;;;;;3.05;1.17;;;10.60;99.90;;;;;;4948721;28;20123;-80
2023/09/15 03:03:49;;;;;;;2.25;0.80;;;10.60;99.90;;;;;;4966437;28;20027;-79
2023/09/15 03:06:16;;;;;;;2.85;0.90;;;10.60;99.90;;;;;;4964772;28;20023;-81
2023/09/15 03:08:43;;;;;;;3.05;1.00;;;10.60;99.90;;;;;;4959191;28;20038;-80
2023/09/15 03:11:14;;;;;;;2.17;1.08;;;10.60;99.90;;;;;;4974727;28;20141;-84
2023/09/15 03:13:41;;;;;;;1.95;0.98;;;10.50;99.90;;;;;;4963824;28;20074;-79
2023/09/15 03:16:11;;;;;;;2.78;0.90;;;10.50;99.90;;;;;;4930637;28;20062;-80
2023/09/15 03:18:38;;;;;;;1.48;0.60;;;10.50;99.90;;;;;;4960433;28;20171;-79
2023/09/15 03:21:05;;;;;;;2.72;0.88;;;10.50;99.90;;;;;;4961628;28;20092;-82
2023/09/15 03:23:31;;;;;;;1.80;0.80;;;10.50;99.90;;;;;;4950245;28;20098;-80
2023/09/15 03:26:04;;;;;;;2.08;0.90;;;10.50;99.90;;;;;;4959693;28;20045;-80
2023/09/15 03:28:35;;;;;;;2.85;0.88;;;10.40;99.90;;;;;;4946472;28;20103;-83
2023/09/15 03:31:03;;;;;;;1.90;0.80;;;10.40;99.90;;;;;;4956813;28;20031;-79
2023/09/15 03:33:30;;;;;;;2.58;0.95;;;10.40;99.90;;;;;;4958251;28;20027;-80
2023/09/15 03:36:00;;;;;;;2.63;0.80;;;10.30;99.90;;;;;;4959548;28;20030;-81
2023/09/15 03:38:26;;;;;;;1.90;0.85;;;10.30;99.90;;;;;;4950790;28;20483;-80
2023/09/15 03:40:51;;;;;;;2.35;0.88;;;10.20;99.90;;;;;;4962861;28;20039;-79
2023/09/15 03:43:17;;;;;;;3.50;0.70;;;10.20;99.90;;;;;;4930534;28;20050;-80
2023/09/15 03:45:47;;;;;;;3.58;1.08;;;10.20;99.90;;;;;;4932330;29;20041;-82
2023/09/15 03:48:13;;;;;;;1.95;0.80;;;10.20;99.90;;;;;;4940829;29;20618;-80
2023/09/15 03:50:39;;;;;;;2.40;0.75;;;10.20;99.90;;;;;;4926465;29;20040;-80
2023/09/15 03:53:06;;;;;;;2.13;0.90;;;10.20;99.90;;;;;;4931381;29;20047;-81
2023/09/15 03:55:33;;;;;;;2.22;0.90;;;10.10;99.90;;;;;;4931438;29;20407;-80
2023/09/15 03:58:00;;;;;;;2.63;0.70;;;10.10;99.90;;;;;;4911987;29;20032;-80
2023/09/15 04:00:26;;;;;;;2.08;0.80;;;10.10;99.90;;;;;;4927597;29;20035;-80
2023/09/15 04:02:53;;;;;;;1.45;0.70;;;10.10;99.90;;;;;;4925969;29;20023;-81
2023/09/15 04:05:20;;;;;;;1.50;0.80;;;10.10;99.90;;;;;;4929816;29;20024;-83
2023/09/15 04:07:46;;;;;;;1.35;0.50;;;10.10;99.90;;;;;;4926161;29;20031;-82
2023/09/15 04:10:13;;;;;;;1.80;0.70;;;10.10;99.90;;;;;;4931286;29;20062;-81
2023/09/15 04:12:42;;;;;;;2.05;0.70;;;10.10;99.90;;;;;;4932509;29;20107;-81
2023/09/15 04:15:09;;;;;;;2.75;0.82;;;10.10;99.90;;;;;;4926927;29;20065;-80
2023/09/15 04:17:35;;;;;;;2.33;0.60;;;10.10;99.90;;;;;;4927627;29;20584;-81
2023/09/15 04:20:00;;;;;;;1.70;0.80;;;10.00;99.90;;;;;;4926753;29;20246;-82
2023/09/15 04:22:27;;;;;;;1.70;0.70;;;10.00;99.90;;;;;;4945179;29;20395;-82
2023/09/15 04:24:53;;;;;;;3.20;0.85;;;10.00;99.90;;;;;;4928712;28;20526;-81
2023/09/15 04:27:19;;;;;;;2.63;0.93;;;10.00;99.90;;;;;;4928720;29;20028;-82
2023/09/15 04:29:54;;;;;;;1.98;0.80;;;9.90;99.90;;;;;;4922717;29;20024;-83
2023/09/15 04:32:23;;;;;;;1.98;0.70;;;9.90;99.90;;;;;;4942292;29;20514;-85
2023/09/15 04:34:52;;;;;;;2.20;0.80;;;9.90;99.90;;;;;;4932150;29;20042;-82
2023/09/15 04:37:20;;;;;;;1.80;0.80;;;9.90;99.90;;;;;;4939221;29;20031;-81
2023/09/15 04:39:49;;;;;;;2.10;0.70;;;9.90;99.90;;;;;;4943400;29;20039;-81
2023/09/15 04:42:15;;;;;;;2.08;0.80;;;9.90;99.90;;;;;;4936941;28;20108;-84
2023/09/15 04:44:41;;;;;;;2.38;0.82;;;9.90;99.90;;;;;;4927396;29;20027;-81
2023/09/15 04:47:09;;;;;;;2.28;0.95;;;9.80;99.90;;;;;;4943231;29;20138;-84
2023/09/15 04:49:35;;;;;;;3.03;0.95;;;9.90;99.90;;;;;;4926198;29;20377;-82
2023/09/15 04:52:03;;;;;;;1.75;0.80;;;9.90;99.90;;;;;;4931259;29;20023;-83
2023/09/15 04:54:28;;;;;;;3.45;0.82;;;9.90;99.90;;;;;;4929311;28;20380;-83
2023/09/15 04:56:55;;;;;;;1.63;0.60;;;10.00;99.90;;;;;;4940939;29;20031;-83
2023/09/15 04:59:21;;;;;;;2.15;0.95;;;10.10;99.90;;;;;;4944028;29;20028;-81
2023/09/15 05:01:50;;;;;;;1.73;0.60;;;10.20;99.90;;;;;;4941207;29;20448;-82
2023/09/15 05:04:19;;;;;;;1.67;0.65;;;10.20;99.90;;;;;;4926138;29;20019;-82
2023/09/15 05:06:45;;;;;;;2.23;0.80;;;10.20;99.90;;;;;;4928969;29;20438;-83
2023/09/15 05:09:11;;;;;;;2.20;0.95;;;10.10;99.90;;;;;;4927631;29;20349;-86
2023/09/15 05:11:37;;;;;;;2.67;0.90;;;10.10;99.90;;;;;;4925590;29;20049;-82
2023/09/15 05:14:03;;;;;;;2.28;0.93;;;10.10;99.90;;;;;;4944512;29;20039;-81
2023/09/15 05:16:30;;;;;;;2.90;0.90;;;10.10;99.90;;;;;;4929523;29;20062;-84
2023/09/15 05:18:55;;;;;;;3.58;0.75;;;10.20;99.90;;;;;;4928611;29;20512;-83
2023/09/15 05:21:22;;;;;;;2.17;0.90;;;10.20;99.90;;;;;;4943680;29;20085;-81
2023/09/15 05:23:48;;;;;;;2.90;0.80;;;10.20;99.90;;;;;;4942129;29;20536;-81
2023/09/15 05:26:14;;;;;;;1.65;0.73;;;10.20;99.90;;;;;;4929265;29;20077;-81
2023/09/15 05:28:40;;;;;;;1.85;0.73;;;10.20;99.90;;;;;;4942278;29;20138;-81
2023/09/15 05:31:07;;;;;;;2.50;0.93;;;10.30;99.90;;;;;;4925656;29;20019;-85
2023/09/15 05:33:35;;;;;;;1.80;0.70;;;10.30;99.90;;;;;;4928067;29;20038;-81
2023/09/15 05:36:00;;;;;;;2.83;1.00;;;10.30;99.90;;;;;;4926216;29;20032;-81
2023/09/15 05:38:27;;;;;;;2.47;0.90;;;10.30;99.90;;;;;;4930558;29;20110;-82
2023/09/15 05:40:53;;;;;;;2.65;1.05;;;10.40;99.90;;;;;;4929643;29;20027;-81
2023/09/15 05:43:19;;;;;;;2.38;0.80;;;10.40;99.90;;;;;;4928870;29;20074;-85
2023/09/15 05:45:45;;;;;;;2.33;0.60;;;10.40;99.90;;;;;;4927610;28;20362;-84
2023/09/15 05:48:16;;;;;;;3.08;1.08;;;10.40;99.90;;;;;;4925252;28;20035;-83
2023/09/15 05:50:41;;;;;;;1.75;0.73;;;10.50;99.90;;;;;;4924031;28;20483;-83
2023/09/15 05:53:07;;;;;;;1.73;0.80;;;10.50;99.90;;;;;;4923303;28;20146;-83
2023/09/15 05:55:33;;;;;;;2.00;0.70;;;10.60;99.90;;;;;;4925120;28;20139;-83
2023/09/15 05:57:58;;;;;;;2.30;1.02;;;10.70;99.90;;;;;;4926204;28;20496;-82
2023/09/15 06:00:25;;;;;;;3.28;0.88;;;10.80;99.90;;;;;;4926821;28;20134;-83
2023/09/15 06:02:50;;;;;;;1.83;0.70;;;10.80;99.90;;;;;;4927144;28;20039;-82
2023/09/15 06:05:19;;;;;;;1.70;0.70;;;10.90;99.90;;;;;;4924160;28;20112;-82
2023/09/15 06:07:45;;;;;;;3.47;0.90;;;11.00;99.90;;;;;;4927588;29;20110;-82
2023/09/15 06:10:11;;;;;;;2.08;1.00;;;11.00;99.90;;;;;;4927284;29;20035;-84
2023/09/15 06:12:37;;;;;;;2.00;0.80;;;11.10;99.90;;;;;;4929209;29;20038;-82
2023/09/15 06:15:03;;;;;;;2.88;1.40;;;11.20;99.90;;;;;;4928358;29;20050;-81
2023/09/15 06:17:29;;;;;;;2.05;0.80;;;11.20;99.90;;;;;;4926331;28;20035;-82
2023/09/15 06:19:57;;;;;;;2.08;0.73;;;11.30;99.90;;;;;;4928280;29;20039;-83
2023/09/15 06:22:23;;;;;;;2.13;0.82;;;11.40;99.90;;;;;;4929210;29;20054;-82
2023/09/15 06:24:49;;;;;;;3.05;1.05;;;11.60;99.90;;;;;;4909950;29;20398;-82
2023/09/15 06:27:14;;;;;;;2.45;1.40;;;11.60;99.90;;;;;;4926836;29;20368;-82
2023/09/15 06:29:40;;;;;;;3.00;1.20;;;11.60;99.90;;;;;;4927533;29;20495;-82
2023/09/15 06:32:06;;;;;;;2.83;0.98;;;11.70;99.90;;;;;;4926471;29;20027;-83
2023/09/15 06:34:32;;;;;;;2.20;0.80;;;11.90;99.90;;;;;;4929408;28;20047;-81
2023/09/15 06:36:58;;;;;;;2.35;1.20;;;11.90;99.90;;;;;;4929432;29;20024;-84
2023/09/15 06:39:24;;;;;;;4.38;1.17;;;12.00;99.90;;;;;;4943157;29;20128;-82
2023/09/15 06:41:50;;;;;;;2.58;0.95;;;12.00;99.90;;;;;;4925355;28;20024;-83
2023/09/15 06:44:22;;;;;;;2.40;0.90;;;12.00;99.90;;;;;;4927438;29;20027;-82
2023/09/15 06:46:47;;;;;;;2.35;0.80;;;12.20;99.90;;;;;;4925723;28;20407;-83
2023/09/15 06:49:14;;;;;;;2.58;0.90;;;12.30;99.90;;;;;;4942380;29;20031;-82
2023/09/15 06:51:40;;;;;;;2.42;0.95;;;12.50;99.90;;;;;;4924706;28;20023;-82
2023/09/15 06:54:06;;;;;;;4.07;0.93;;;12.60;99.90;;;;;;4923339;28;20456;-84
2023/09/15 06:56:32;;;;;;;6.45;1.33;;;12.80;99.90;;;;;;4928678;28;20031;-83
2023/09/15 06:58:57;;;;;;;2.35;0.80;;;12.90;99.90;;;;;;4922895;29;20035;-85
2023/09/15 07:01:23;;;;;;;2.05;0.98;;;13.00;99.90;;;;;;4928215;29;20032;-84
2023/09/15 07:03:49;;;;;;;4.03;0.88;;;13.10;99.90;;;;;;4928334;28;20031;-82
2023/09/15 07:06:14;;;;;;;4.32;1.10;;;13.30;99.90;;;;;;4923933;29;20040;-83
2023/09/15 07:08:40;;;;;;;2.42;1.30;;;13.40;99.90;;;;;;4927748;29;20027;-83
2023/09/15 07:11:06;;;;;;;3.78;1.10;;;13.50;99.90;;;;;;4928150;29;20039;-82
2023/09/15 07:13:31;;;;;;;2.42;0.80;;;13.60;99.90;;;;;;4928945;29;20036;-82
2023/09/15 07:15:57;;;;;;;2.65;0.80;;;13.80;99.90;;;;;;4925515;28;20040;-83
2023/09/15 07:18:23;;;;;;;3.28;0.90;;;13.80;99.90;;;;;;4924873;28;20130;-82
2023/09/15 07:20:49;;;;;;;2.25;1.00;;;13.90;99.90;;;;;;4928066;29;20040;-82
2023/09/15 07:23:15;;;;;;;2.58;0.95;;;14.00;99.90;;;;;;4945044;28;20062;-83
2023/09/15 07:25:48;;;;;;;4.20;1.02;;;14.10;99.90;;;;;;4945404;28;20059;-81
2023/09/15 07:28:15;;;;;;;2.42;0.85;;;14.20;99.90;;;;;;4937986;28;20472;-82
2023/09/15 07:30:41;;;;;;;4.30;0.88;;;14.50;99.90;;;;;;4924761;29;20479;-84
2023/09/15 07:33:08;;;;;;;2.45;0.88;;;14.60;99.90;;;;;;4943866;29;20043;-83
2023/09/15 07:35:36;;;;;;;4.90;0.90;;;14.70;99.90;;;;;;4930125;28;20039;-82
2023/09/15 07:38:04;;;;;;;1.42;0.68;;;14.90;99.90;;;;;;4937578;29;20483;-83
2023/09/15 07:40:30;;;;;;;2.53;0.88;;;15.00;99.90;;;;;;4939708;29;20043;-82
2023/09/15 07:42:56;;;;;;;3.67;0.77;;;15.20;99.90;;;;;;4928478;29;20043;-82
2023/09/15 07:45:22;;;;;;;1.70;0.63;;;15.30;99.90;;;;;;4943423;29;20400;-83
2023/09/15 07:47:47;;;;;;;2.53;0.73;;;15.50;99.90;;;;;;4926952;28;20409;-82
2023/09/15 07:50:16;;;;;;;3.70;0.80;;;15.60;99.90;;;;;;4938377;29;20027;-82
2023/09/15 07:52:43;;;;;;;3.30;1.13;;;15.70;99.90;;;;;;4941661;29;20426;-80
2023/09/15 07:55:09;;;;;;;3.40;0.90;;;15.70;99.90;;;;;;4930789;29;20047;-81
2023/09/15 07:57:36;;;;;;;4.13;1.25;;;15.80;99.90;;;;;;4931562;29;20104;-81
2023/09/15 08:00:02;;;;;;;4.10;0.82;;;15.90;99.90;;;;;;4913631;28;20040;-82
2023/09/15 08:02:38;;;;;;;2.30;0.80;;;16.00;99.90;;;;;;4943883;29;20038;-82
2023/09/15 08:05:04;;;;;;;5.50;1.00;;;16.10;99.90;;;;;;4928038;29;20035;-81
2023/09/15 08:07:30;;;;;;;5.78;0.90;;;16.30;99.90;;;;;;4931503;29;20503;-82
2023/09/15 08:09:56;;;;;;;2.50;0.80;;;16.50;99.90;;;;;;4929745;29;20035;-82
2023/09/15 08:12:23;;;;;;;2.20;0.77;;;16.60;99.90;;;;;;4943039;29;20031;-81
2023/09/15 08:14:49;;;;;;;2.90;0.90;;;16.70;99.90;;;;;;4945330;29;20050;-82
2023/09/15 08:17:16;;;;;;;3.25;0.80;;;16.80;99.90;;;;;;4943001;29;20207;-82
2023/09/15 08:19:42;;;;;;;1.75;0.75;;;17.10;99.90;;;;;;4940908;29;20464;-83
2023/09/15 08:22:07;;;;;;;2.65;0.88;;;17.00;99.90;;;;;;4930876;29;20126;-83
2023/09/15 08:24:33;;;;;;;3.30;0.80;;;17.00;99.90;;;;;;4929641;29;20130;-82
2023/09/15 08:26:59;;;;;;;3.17;1.30;;;17.10;99.90;;;;;;4928129;29;20189;-83
2023/09/15 08:29:25;;;;;;;3.40;0.80;;;17.00;99.90;;;;;;4910215;29;20052;-85
2023/09/15 08:31:50;;;;;;;2.80;0.90;;;16.90;99.90;;;;;;4943726;29;20543;-84
2023/09/15 08:34:16;;;;;;;3.85;1.00;;;16.90;99.90;;;;;;4927161;29;20492;-82
2023/09/15 08:36:43;;;;;;;2.92;0.70;;;17.20;99.90;;;;;;4930504;28;20110;-85
2023/09/15 08:39:09;;;;;;;1.90;0.70;;;17.50;99.90;;;;;;4929455;29;20039;-82
2023/09/15 08:42:03;;;;;;;3.47;1.00;;;17.90;99.90;;;;;;4939881;29;20128;-88
2023/09/15 08:44:32;;;;;;;2.70;0.65;;;17.90;99.90;;;;;;4934282;28;20058;-80
2023/09/15 08:47:00;;;;;;;2.45;0.60;;;18.00;99.90;;;;;;4928551;29;20035;-84
2023/09/15 08:49:27;;;;;;;3.50;0.90;;;18.10;99.90;;;;;;4927354;29;20028;-85
2023/09/15 08:51:55;;;;;;;3.88;0.80;;;18.30;99.90;;;;;;4928468;29;20189;-86
2023/09/15 08:54:21;;;;;;;3.53;0.68;;;18.30;99.90;;;;;;4944101;28;20608;-81
2023/09/15 08:56:47;;;;;;;3.03;0.60;;;18.40;99.90;;;;;;4947270;29;20032;-82
2023/09/15 08:59:17;;;;;;;2.85;0.70;;;18.60;99.90;;;;;;4928432;29;20037;-86
2023/09/15 09:01:42;;;;;;;2.83;0.80;;;19.00;99.90;;;;;;4928462;29;20114;-82
2023/09/15 09:04:10;;;;;;;1.85;0.65;;;19.10;99.90;;;;;;4941938;29;20118;-86
2023/09/15 09:06:36;;;;;;;2.72;0.82;;;19.00;99.90;;;;;;4921043;28;20368;-83
2023/09/15 09:09:04;;;;;;;2.67;0.70;;;18.90;99.90;;;;;;4955380;28;20027;-83
2023/09/15 09:11:30;;;;;;;1.80;0.55;;;19.20;99.90;;;;;;4929765;28;20019;-85
2023/09/15 09:13:56;;;;;;;1.58;0.50;;;19.50;99.90;;;;;;4926242;29;20066;-85
2023/09/15 09:16:22;;;;;;;2.67;0.60;;;19.60;99.90;;;;;;4929089;29;20066;-88
2023/09/15 09:18:56;;;;;;;3.08;0.65;;;19.70;99.90;;;;;;4937061;28;20369;-83
2023/09/15 09:21:26;;;;;;;1.70;0.60;;;19.50;99.90;;;;;;4911407;29;20403;-83
2023/09/15 09:23:52;;;;;;;1.95;0.50;;;19.70;99.90;;;;;;4927931;28;20369;-84
2023/09/15 09:26:18;;;;;;;2.75;0.60;;;19.60;99.90;;;;;;4943491;29;20035;-86
2023/09/15 09:28:44;;;;;;;2.22;0.65;;;19.60;99.90;;;;;;4937566;28;20035;-82
2023/09/15 09:31:10;;;;;;;2.55;0.60;;;19.50;99.90;;;;;;4921710;28;20024;-85
2023/09/15 09:33:37;;;;;;;2.25;0.50;;;19.70;99.90;;;;;;4927689;29;20435;-83
2023/09/15 09:36:13;;;;;;;1.52;0.60;;;19.60;99.90;;;;;;4946127;28;20023;-84
2023/09/15 09:38:46;;;;;;;1.80;0.70;;;20.00;99.90;;;;;;4942579;29;20110;-83
2023/09/15 09:41:13;;;;;;;2.05;0.60;;;20.20;99.90;;;;;;4940988;29;20028;-88
2023/09/15 09:43:41;;;;;;;2.97;0.70;;;20.10;99.90;;;;;;4936143;29;20542;-82
2023/09/15 09:46:08;;;;;;;4.35;0.80;;;20.30;99.90;;;;;;4923135;29;20158;-82
2023/09/15 09:48:38;;;;;;;2.60;0.60;;;20.10;99.90;;;;;;4927199;29;20047;-85
2023/09/15 09:51:05;;;;;;;;;;;20.20;99.90;;;;;;4943064;29;20035;-84
2023/09/15 09:53:35;;;;;;;3.22;0.70;;;20.20;99.90;;;;;;5024701;28;19930;-84
2023/09/15 09:56:04;;;;;;;2.38;0.65;;;20.10;99.90;;;;;;4940607;29;20035;-83
2023/09/15 09:58:35;;;;;;;2.45;0.60;;;20.30;99.90;;;;;;4939313;29;20031;-86
2023/09/15 10:01:00;;;;;;;1.75;0.45;;;20.70;99.90;;;;;;4925736;29;20062;-85
2023/09/15 10:03:26;;;;;;;1.63;0.50;;;20.80;99.90;;;;;;4923755;29;20472;-85
2023/09/15 10:05:52;;;;;;;2.63;0.57;;;21.00;99.90;;;;;;4928588;29;20027;-84
2023/09/15 10:08:18;;;;;;;2.67;1.00;;;20.60;99.90;;;;;;4942413;29;20030;-86
2023/09/15 10:10:46;;;;;;;2.75;0.57;;;20.60;99.90;;;;;;4915184;29;20023;-88
2023/09/15 10:13:13;;;;;;;2.17;0.60;;;20.50;99.90;;;;;;4925022;29;20058;-84
2023/09/15 10:15:43;;;;;;;2.78;0.73;;;20.70;99.90;;;;;;4934981;29;20177;-84
2023/09/15 10:18:09;;;;;;;;;;;20.60;99.90;;;;;;4922827;29;20028;-86
2023/09/15 10:20:37;;;;;;;2.00;0.40;;;20.80;99.90;;;;;;4944398;28;19910;-84
2023/09/15 10:23:05;;;;;;;2.95;0.70;;;21.00;99.90;;;;;;4925798;29;20039;-87
2023/09/15 10:25:47;;;;;;;2.35;0.50;;;21.00;99.90;;;;;;4929373;28;20036;-86
2023/09/15 10:28:13;;;;;;;1.80;0.50;;;21.10;99.90;;;;;;4926492;29;20035;-85
2023/09/15 10:30:40;;;;;;;2.22;0.57;;;21.20;99.90;;;;;;4925671;28;20043;-84
2023/09/15 10:33:07;;;;;;;2.13;0.60;;;21.00;99.90;;;;;;4942512;29;20095;-85
2023/09/15 10:35:33;;;;;;;0.98;0.38;;;21.00;99.90;;;;;;4925833;29;20066;-91
2023/09/15 10:38:05;;;;;;;2.60;0.50;;;21.30;99.90;;;;;;4913120;29;20382;-86
2023/09/15 10:40:47;;;;;;;2.85;0.70;;;21.70;99.90;;;;;;4947283;29;20116;-86
2023/09/15 10:43:17;;;;;;;1.55;0.40;;;21.90;99.90;;;;;;4938637;29;20142;-88
2023/09/15 10:45:57;;;;;;;1.35;0.40;;;21.70;99.90;;;;;;4933738;29;20035;-89
2023/09/15 10:48:46;;;;;;;1.60;0.60;;;22.00;99.90;;;;;;4926263;29;20031;-83
2023/09/15 10:51:22;;;;;;;1.50;0.40;;;22.10;99.90;;;;;;4940384;28;20411;-92
2023/09/15 10:53:49;;;;;;;1.23;0.40;;;22.10;99.90;;;;;;4922689;29;20126;-86
2023/09/15 10:56:17;;;;;;;1.17;0.35;;;22.00;99.90;;;;;;4925957;29;20348;-83
2023/09/15 10:58:47;;;;;;;1.23;0.30;;;21.90;99.90;;;;;;4926481;29;20545;-85
2023/09/15 11:01:17;;;;;;;1.23;0.40;;;21.80;99.90;;;;;;4925717;29;20024;-84
2023/09/15 11:03:44;;;;;;;2.20;0.80;;;22.00;99.90;;;;;;4925806;29;20058;-86
2023/09/15 11:06:14;;;;;;;1.30;0.50;;;22.30;99.90;;;;;;4940498;28;20031;-84
2023/09/15 11:08:40;;;;;;;1.60;0.60;;;22.40;99.90;;;;;;4927956;29;20027;-90
2023/09/15 11:11:10;;;;;;;2.80;0.60;;;22.00;99.90;;;;;;4929948;29;20491;-84
2023/09/15 11:13:40;;;;;;;2.00;0.70;;;22.20;99.90;;;;;;4925789;28;20053;-86
2023/09/15 11:16:08;;;;;;;2.28;0.52;;;22.40;99.90;;;;;;4944572;29;20047;-86
2023/09/15 11:18:35;;;;;;;1.60;0.50;;;22.20;99.90;;;;;;4927448;29;20028;-85
2023/09/15 11:21:01;;;;;;;2.00;0.50;;;22.10;99.90;;;;;;4929073;29;20031;-84
2023/09/15 11:23:28;;;;;;;1.40;0.60;;;22.10;99.90;;;;;;4931769;29;20047;-92
2023/09/15 11:26:04;;;;;;;2.15;0.60;;;21.90;99.90;;;;;;4942368;29;20536;-84
2023/09/15 11:28:31;;;;;;;2.38;0.40;;;22.10;99.90;;;;;;4945483;29;20114;-88
2023/09/15 11:30:57;;;;;;;2.03;0.47;;;22.40;99.90;;;;;;4928408;28;20038;-90
2023/09/15 11:33:23;;;;;;;1.98;0.40;;;22.60;99.90;;;;;;4914342;28;20194;-86
2023/09/15 11:35:49;;;;;;;1.15;0.40;;;22.80;99.90;;;;;;4920895;28;20292;-87
2023/09/15 11:38:15;;;;;;;1.23;0.40;;;22.50;99.90;;;;;;4928868;29;20464;-85
2023/09/15 11:40:51;;;;;;;1.30;0.40;;;22.80;99.90;;;;;;4911695;29;20070;-87
2023/09/15 11:43:21;;;;;;;1.73;0.45;;;22.80;99.90;;;;;;4929848;29;20411;-90
2023/09/15 11:45:48;;;;;;;1.20;0.30;;;22.90;99.90;;;;;;4929283;29;20051;-86
2023/09/15 11:48:15;;;;;;;2.63;0.52;;;23.00;99.90;;;;;;4929108;29;20024;-88
2023/09/15 11:50:41;;;;;;;2.08;0.40;;;22.90;99.90;;;;;;4920333;29;20047;-87
2023/09/15 11:53:07;;;;;;;2.20;0.50;;;23.00;99.90;;;;;;4945486;28;20023;-84
2023/09/15 11:55:34;;;;;;;1.92;0.50;;;22.90;99.90;;;;;;4932173;29;20487;-84
2023/09/15 11:58:02;;;;;;;1.92;0.40;;;22.90;99.90;;;;;;4925695;29;20035;-87
2023/09/15 12:00:31;;;;;;;1.10;0.40;;;23.10;99.90;;;;;;4942078;29;20027;-83
2023/09/15 12:02:58;;;;;;;1.35;0.30;;;22.90;99.90;;;;;;4943453;29;20089;-86
2023/09/15 12:05:26;;;;;;;1.60;0.40;;;23.00;99.90;;;;;;4943132;28;20032;-85
2023/09/15 12:07:52;;;;;;;2.28;0.50;;;22.60;99.90;;;;;;4928532;29;20027;-84
2023/09/15 12:10:21;;;;;;;1.00;0.35;;;22.60;99.90;;;;;;4911668;28;20063;-85
2023/09/15 12:12:48;;;;;;;1.85;0.40;;;22.90;99.90;;;;;;4947218;29;20038;-86
2023/09/15 12:15:15;;;;;;;1.27;0.50;;;23.10;99.90;;;;;;4942593;29;20069;-88
2023/09/15 12:17:44;;;;;;;1.98;0.60;;;23.30;99.90;;;;;;4928797;29;20099;-88
2023/09/15 12:20:11;;;;;;;1.33;0.40;;;22.90;99.90;;;;;;4928335;29;20027;-85
2023/09/15 12:22:41;;;;;;;1.90;0.50;;;23.10;99.90;;;;;;4930730;29;20031;-86
2023/09/15 12:25:13;;;;;;;1.40;0.50;;;22.70;99.90;;;;;;4927156;29;20032;-85
2023/09/15 12:27:39;;;;;;;1.40;0.60;;;22.70;99.90;;;;;;4944778;29;20403;-86
2023/09/15 12:30:05;;;;;;;1.85;0.40;;;23.00;99.90;;;;;;4944278;29;20042;-86
2023/09/15 12:32:33;;;;;;;2.17;0.50;;;22.80;99.90;;;;;;4943781;29;20027;-87
2023/09/15 12:34:59;;;;;;;1.02;0.30;;;22.80;99.90;;;;;;4927776;28;20039;-85
2023/09/15 12:37:27;;;;;;;1.63;0.40;;;23.20;99.90;;;;;;4942321;28;20390;-87
2023/09/15 12:39:52;;;;;;;3.53;0.52;;;23.10;99.90;;;;;;4926108;28;20028;-87
2023/09/15 12:42:18;;;;;;;1.80;0.60;;;23.10;99.90;;;;;;4930580;28;20246;-86
2023/09/15 12:44:44;;;;;;;1.38;0.40;;;22.70;99.90;;;;;;4926353;29;20495;-83
2023/09/15 12:47:11;;;;;;;1.58;0.40;;;23.10;99.90;;;;;;4943134;29;20391;-87
2023/09/15 12:49:37;;;;;;;1.42;0.52;;;23.30;99.90;;;;;;4931226;29;20118;-84